createdAt,value
2023-02-27T00:02:25.345Z,100.00
2023-02-27T00:05:29.927Z,100.00
2023-02-27T00:08:34.540Z,100.00
2023-02-27T00:11:39.134Z,100.00
2023-02-27T00:14:43.602Z,100.00
2023-02-27T00:17:48.199Z,100.00
2023-02-27T00:20:54.631Z,100.00
2023-02-27T00:23:59.171Z,100.00
2023-02-27T00:27:03.761Z,100.00
2023-02-27T00:30:11.790Z,100.00
2023-02-27T00:33:16.768Z,100.00
2023-02-27T00:36:21.465Z,100.00
2023-02-27T00:39:25.972Z,100.00
2023-02-27T00:42:32.034Z,100.00
2023-02-27T00:45:36.710Z,100.00
2023-02-27T00:48:41.202Z,100.00
2023-02-27T00:51:46.681Z,100.00
2023-02-27T00:54:51.204Z,100.00
2023-02-27T00:57:55.824Z,100.00
2023-02-27T01:01:00.579Z,100.00
2023-02-27T01:04:06.512Z,100.00
2023-02-27T01:07:11.097Z,100.00
2023-02-27T01:10:17.588Z,100.00
2023-02-27T01:13:22.239Z,100.00
2023-02-27T01:16:26.830Z,100.00
2023-02-27T01:19:31.829Z,100.00
2023-02-27T01:22:36.361Z,100.00
2023-02-27T01:25:40.948Z,100.00
2023-02-27T01:28:45.512Z,100.00
2023-02-27T01:31:50.824Z,100.00
2023-02-27T01:34:55.493Z,100.00
2023-02-27T01:38:00.067Z,100.00
2023-02-27T01:41:07.149Z,100.00
2023-02-27T01:44:13.457Z,100.00
2023-02-27T01:47:18.168Z,100.00
2023-02-27T01:50:23.720Z,100.00
2023-02-27T01:53:31.867Z,100.00
2023-02-27T01:56:36.858Z,100.00
2023-02-27T01:59:42.322Z,100.00
2023-02-27T02:03:04.554Z,100.00
2023-02-27T02:06:10.155Z,100.00
2023-02-27T02:09:17.414Z,100.00
2023-02-27T02:12:26.686Z,100.00
2023-02-27T02:15:37.081Z,100.00
2023-02-27T02:18:53.837Z,100.00
2023-02-27T02:22:16.021Z,100.00
2023-02-27T02:25:57.998Z,100.00
2023-02-27T02:29:25.729Z,100.00
2023-02-27T02:32:54.502Z,100.00
2023-02-27T02:36:17.547Z,100.00
2023-02-27T02:40:04.776Z,100.00
2023-02-27T02:43:25.822Z,100.00
2023-02-27T02:46:50.913Z,100.00
2023-02-27T02:50:09.386Z,100.00
2023-02-27T02:53:36.045Z,100.00
2023-02-27T02:56:43.289Z,100.00
2023-02-27T03:00:02.408Z,100.00
2023-02-27T03:03:22.383Z,100.00
2023-02-27T03:06:38.000Z,100.00
2023-02-27T03:09:57.040Z,100.00
2023-02-27T03:13:46.283Z,100.00
2023-02-27T03:16:54.793Z,100.00
2023-02-27T03:20:06.334Z,100.00
2023-02-27T03:23:16.101Z,100.00
2023-02-27T03:26:24.877Z,100.00
2023-02-27T03:29:52.678Z,100.00
2023-02-27T03:33:10.561Z,100.00
2023-02-27T03:36:37.945Z,100.00
2023-02-27T03:39:51.670Z,100.00
2023-02-27T03:43:19.123Z,100.00
2023-02-27T03:46:28.430Z,100.00
2023-02-27T03:49:33.014Z,100.00
2023-02-27T03:52:39.816Z,100.00
2023-02-27T03:55:47.417Z,100.00
2023-02-27T03:58:52.488Z,100.00
2023-02-27T04:01:59.044Z,100.00
2023-02-27T04:05:04.015Z,100.00
2023-02-27T04:08:28.333Z,100.00
2023-02-27T04:12:04.000Z,100.00
2023-02-27T04:15:23.604Z,100.00
2023-02-27T04:18:51.117Z,100.00
2023-02-27T04:22:12.205Z,100.00
2023-02-27T04:25:39.429Z,100.00
2023-02-27T04:29:05.918Z,100.00
2023-02-27T04:32:17.531Z,100.00
2023-02-27T04:35:33.005Z,100.00
2023-02-27T04:38:47.640Z,100.00
2023-02-27T04:42:00.621Z,100.00
2023-02-27T04:45:07.692Z,100.00
2023-02-27T04:48:21.042Z,100.00
2023-02-27T04:51:32.794Z,100.00
2023-02-27T04:54:38.367Z,100.00
2023-02-27T04:57:49.591Z,100.00
2023-02-27T05:01:03.785Z,100.00
2023-02-27T05:04:13.391Z,100.00
2023-02-27T05:07:23.423Z,100.00
2023-02-27T05:10:38.457Z,100.00
2023-02-27T05:13:51.637Z,100.00
2023-02-27T05:17:17.821Z,100.00
2023-02-27T05:20:23.333Z,100.00
2023-02-27T05:24:11.457Z,100.00
2023-02-27T05:27:35.046Z,100.00
2023-02-27T05:31:08.239Z,100.00
2023-02-27T05:34:22.566Z,100.00
2023-02-27T05:37:33.877Z,100.00
2023-02-27T05:40:39.366Z,100.00
2023-02-27T05:43:49.048Z,100.00
2023-02-27T05:47:00.630Z,100.00
2023-02-27T05:50:19.516Z,100.00
2023-02-27T05:53:28.270Z,100.00
2023-02-27T05:56:36.451Z,100.00
2023-02-27T05:59:48.002Z,100.00
2023-02-27T06:02:53.218Z,100.00
2023-02-27T06:05:59.781Z,100.00
2023-02-27T06:09:04.322Z,100.00
2023-02-27T06:12:08.893Z,100.00
2023-02-27T06:15:13.899Z,100.00
2023-02-27T06:18:18.859Z,100.00
2023-02-27T06:21:23.427Z,100.00
2023-02-27T06:24:27.964Z,100.00
2023-02-27T06:27:33.837Z,100.00
2023-02-27T06:30:38.915Z,100.00
2023-02-27T06:33:43.442Z,100.00
2023-02-27T06:36:48.624Z,98.32
2023-02-27T06:39:54.466Z,100.00
2023-02-27T06:42:59.137Z,97.06
2023-02-27T06:46:04.044Z,96.21
2023-02-27T06:49:08.576Z,94.94
2023-02-27T06:52:13.154Z,95.59
2023-02-27T06:55:22.539Z,96.56
2023-02-27T06:58:28.483Z,95.11
2023-02-27T07:01:33.172Z,92.58
2023-02-27T07:04:37.833Z,99.22
2023-02-27T07:07:42.357Z,91.76
2023-02-27T07:10:48.882Z,92.33
2023-02-27T07:13:53.476Z,92.42
2023-02-27T07:17:03.344Z,96.92
2023-02-27T07:20:10.478Z,94.84
2023-02-27T07:23:15.241Z,93.37
2023-02-27T07:26:19.828Z,92.97
2023-02-27T07:29:24.455Z,91.26
2023-02-27T07:32:30.466Z,94.88
2023-02-27T07:35:35.126Z,90.17
2023-02-27T07:38:39.627Z,91.28
2023-02-27T07:41:44.149Z,87.21
2023-02-27T07:44:54.599Z,88.05
2023-02-27T07:47:59.086Z,84.88
2023-02-27T07:51:03.621Z,84.65
2023-02-27T07:54:08.098Z,78.45
2023-02-27T07:57:12.711Z,79.46
2023-02-27T08:00:19.076Z,80.98
2023-02-27T08:03:23.637Z,82.17
2023-02-27T08:06:28.453Z,79.34
2023-02-27T08:09:33.269Z,78.20
2023-02-27T08:12:38.147Z,74.57
2023-02-27T08:15:42.683Z,74.40
2023-02-27T08:18:47.743Z,75.93
2023-02-27T08:21:52.259Z,74.79
2023-02-27T08:24:56.815Z,77.23
2023-02-27T08:28:01.279Z,73.45
2023-02-27T08:31:07.605Z,79.68
2023-02-27T08:34:13.223Z,72.13
2023-02-27T08:37:17.713Z,71.95
2023-02-27T08:40:22.281Z,72.53
2023-02-27T08:43:26.819Z,77.71
2023-02-27T08:46:32.245Z,74.17
2023-02-27T08:49:36.915Z,71.06
2023-02-27T08:52:41.405Z,74.71
2023-02-27T08:55:50.993Z,71.83
2023-02-27T08:58:55.587Z,75.04
2023-02-27T09:02:00.181Z,71.01
2023-02-27T09:05:05.038Z,75.93
2023-02-27T09:08:09.695Z,74.14
2023-02-27T09:11:15.351Z,71.22
2023-02-27T09:14:20.047Z,68.38
2023-02-27T09:17:24.578Z,70.35
2023-02-27T09:20:31.561Z,68.31
2023-02-27T09:23:37.260Z,72.09
2023-02-27T09:26:46.056Z,70.22
2023-02-27T09:29:55.821Z,69.47
2023-02-27T09:33:00.480Z,71.47
2023-02-27T09:36:06.839Z,70.52
2023-02-27T09:39:11.367Z,70.96
2023-02-27T09:42:22.386Z,71.07
2023-02-27T09:45:30.020Z,75.03
2023-02-27T09:48:54.522Z,78.96
2023-02-27T09:51:59.187Z,78.68
2023-02-27T09:55:15.204Z,78.23
2023-02-27T09:58:57.904Z,77.65
2023-02-27T10:02:22.938Z,81.70
2023-02-27T10:05:40.369Z,78.06
2023-02-27T10:08:56.575Z,73.45
2023-02-27T10:12:23.982Z,71.27
2023-02-27T10:15:38.132Z,70.43
2023-02-27T10:19:06.728Z,63.58
2023-02-27T10:22:12.302Z,68.17
2023-02-27T10:25:30.835Z,63.94
2023-02-27T10:28:35.927Z,66.17
2023-02-27T10:31:41.854Z,64.12
2023-02-27T10:35:10.890Z,66.04
2023-02-27T10:38:29.176Z,63.33
2023-02-27T10:41:36.163Z,70.18
2023-02-27T10:44:40.787Z,68.88
2023-02-27T10:47:46.250Z,66.77
2023-02-27T10:50:52.051Z,67.68
2023-02-27T10:54:23.581Z,70.46
2023-02-27T10:57:40.545Z,68.76
2023-02-27T11:01:06.970Z,70.06
2023-02-27T11:04:12.918Z,65.04
2023-02-27T11:07:21.167Z,67.18
2023-02-27T11:10:28.281Z,64.24
2023-02-27T11:13:41.822Z,67.03
2023-02-27T11:17:13.308Z,66.81
2023-02-27T11:20:29.952Z,66.88
2023-02-27T11:23:34.515Z,66.11
2023-02-27T11:26:41.299Z,62.07
2023-02-27T11:30:23.815Z,59.30
2023-02-27T11:33:31.347Z,59.90
2023-02-27T11:36:41.854Z,59.85
2023-02-27T11:39:52.911Z,60.97
2023-02-27T11:43:03.705Z,57.87
2023-02-27T11:46:32.133Z,61.07
2023-02-27T11:50:01.076Z,56.63
2023-02-27T11:53:40.731Z,58.75
2023-02-27T11:56:52.135Z,57.34
2023-02-27T12:00:36.678Z,58.34
2023-02-27T12:03:50.615Z,56.05
2023-02-27T12:07:27.416Z,57.48
2023-02-27T12:10:39.179Z,56.79
2023-02-27T12:13:49.401Z,57.54
2023-02-27T12:16:59.044Z,58.47
2023-02-27T12:20:07.650Z,60.48
2023-02-27T12:23:25.886Z,60.30
2023-02-27T12:26:38.377Z,61.08
2023-02-27T12:29:51.090Z,60.64
2023-02-27T12:33:32.317Z,62.19
2023-02-27T12:36:36.789Z,60.74
2023-02-27T12:39:44.533Z,59.87
2023-02-27T12:43:04.120Z,59.42
2023-02-27T12:46:11.697Z,64.84
2023-02-27T12:49:42.909Z,61.42
2023-02-27T12:53:36.115Z,61.68
2023-02-27T12:57:05.981Z,59.83
2023-02-27T13:00:25.064Z,61.87
2023-02-27T13:03:45.225Z,60.58
2023-02-27T13:06:51.286Z,59.07
2023-02-27T13:10:03.356Z,58.76
2023-02-27T13:13:09.783Z,59.94
2023-02-27T13:16:41.217Z,58.10
2023-02-27T13:19:52.868Z,57.90
2023-02-27T13:23:23.395Z,56.48
2023-02-27T13:26:38.415Z,55.65
2023-02-27T13:30:01.301Z,55.65
2023-02-27T13:33:30.392Z,54.74
2023-02-27T13:36:43.535Z,57.11
2023-02-27T13:39:52.536Z,57.82
2023-02-27T13:43:01.802Z,57.90
2023-02-27T13:46:26.318Z,58.29
2023-02-27T13:49:42.727Z,58.65
2023-02-27T13:52:48.316Z,57.51
2023-02-27T13:55:57.888Z,58.93
2023-02-27T13:59:28.834Z,62.52
2023-02-27T14:02:46.587Z,58.54
2023-02-27T14:06:02.037Z,59.40
2023-02-27T14:09:15.046Z,59.65
2023-02-27T14:12:45.409Z,61.63
2023-02-27T14:15:55.652Z,63.02
2023-02-27T14:19:01.534Z,66.35
2023-02-27T14:22:11.782Z,63.22
2023-02-27T14:25:51.400Z,62.95
2023-02-27T14:28:57.061Z,64.61
2023-02-27T14:32:07.956Z,62.27
2023-02-27T14:35:16.203Z,64.28
2023-02-27T14:38:21.229Z,63.97
2023-02-27T14:41:48.183Z,64.55
2023-02-27T14:44:53.778Z,64.83
2023-02-27T14:47:58.710Z,64.71
2023-02-27T14:51:03.269Z,61.40
2023-02-27T14:54:21.174Z,62.18
2023-02-27T14:57:28.941Z,61.11
2023-02-27T15:00:43.496Z,62.58
2023-02-27T15:03:52.704Z,59.93
2023-02-27T15:06:58.780Z,59.75
2023-02-27T15:10:08.250Z,59.41
2023-02-27T15:13:27.238Z,58.16
2023-02-27T15:16:34.620Z,57.03
2023-02-27T15:19:47.218Z,58.52
2023-02-27T15:22:51.876Z,57.03
2023-02-27T15:25:59.083Z,57.34
2023-02-27T15:29:05.520Z,57.77
2023-02-27T15:32:38.432Z,57.41
2023-02-27T15:35:45.513Z,58.96
2023-02-27T15:39:16.370Z,57.65
2023-02-27T15:42:25.328Z,56.25
2023-02-27T15:45:34.791Z,58.85
2023-02-27T15:48:39.586Z,56.36
2023-02-27T15:51:46.399Z,56.81
2023-02-27T15:55:03.625Z,57.92
2023-02-27T15:58:37.507Z,56.71
2023-02-27T16:01:42.245Z,55.50
2023-02-27T16:04:47.441Z,59.45
2023-02-27T16:07:53.249Z,56.40
2023-02-27T16:10:58.087Z,56.06
2023-02-27T16:14:04.112Z,56.34
2023-02-27T16:17:31.957Z,58.24
2023-02-27T16:20:55.668Z,58.13
2023-02-27T16:24:21.322Z,57.98
2023-02-27T16:27:27.245Z,57.71
2023-02-27T16:30:31.801Z,58.98
2023-02-27T16:33:38.050Z,61.80
2023-02-27T16:36:52.269Z,60.84
2023-02-27T16:39:56.881Z,62.09
2023-02-27T16:43:02.396Z,59.84
2023-02-27T16:46:08.192Z,60.91
2023-02-27T16:49:22.333Z,59.89
2023-02-27T16:52:26.972Z,61.51
2023-02-27T16:55:33.647Z,60.83
2023-02-27T16:58:38.865Z,64.39
2023-02-27T17:01:46.604Z,62.33
2023-02-27T17:04:52.153Z,62.49
2023-02-27T17:07:56.771Z,63.08
2023-02-27T17:11:02.038Z,63.06
2023-02-27T17:14:06.552Z,64.18
2023-02-27T17:17:11.470Z,66.23
2023-02-27T17:20:17.858Z,63.18
2023-02-27T17:23:23.161Z,64.10
2023-02-27T17:26:28.745Z,65.33
2023-02-27T17:29:33.495Z,65.63
2023-02-27T17:32:38.067Z,69.38
2023-02-27T17:35:42.578Z,65.60
2023-02-27T17:38:48.742Z,71.53
2023-02-27T17:41:54.302Z,66.87
2023-02-27T17:44:58.812Z,70.31
2023-02-27T17:48:03.360Z,69.34
2023-02-27T17:51:11.614Z,69.45
2023-02-27T17:54:16.241Z,73.51
2023-02-27T17:57:20.902Z,70.61
2023-02-27T18:00:25.469Z,70.97
2023-02-27T18:03:30.065Z,73.38
2023-02-27T18:06:34.633Z,73.25
2023-02-27T18:09:39.443Z,71.50
2023-02-27T18:12:44.014Z,71.79
2023-02-27T18:15:50.043Z,73.11
2023-02-27T18:18:54.659Z,73.18
2023-02-27T18:21:59.168Z,75.51
2023-02-27T18:25:03.896Z,74.26
2023-02-27T18:28:08.786Z,78.07
2023-02-27T18:31:31.571Z,76.28
2023-02-27T18:34:36.233Z,80.74
2023-02-27T18:37:40.750Z,77.79
2023-02-27T18:40:46.480Z,79.04
2023-02-27T18:43:51.103Z,76.83
2023-02-27T18:46:55.617Z,77.37
2023-02-27T18:50:00.294Z,74.51
2023-02-27T18:53:04.864Z,76.33
2023-02-27T18:56:13.881Z,77.07
2023-02-27T18:59:18.418Z,77.00
2023-02-27T19:02:22.916Z,78.29
2023-02-27T19:05:27.531Z,74.18
2023-02-27T19:08:32.100Z,75.10
2023-02-27T19:11:36.976Z,71.52
2023-02-27T19:14:41.516Z,73.27
2023-02-27T19:17:46.730Z,74.59
2023-02-27T19:20:51.269Z,73.76
2023-02-27T19:23:55.943Z,73.77
2023-02-27T19:27:00.862Z,72.77
2023-02-27T19:30:09.219Z,73.47
2023-02-27T19:33:13.735Z,71.23
2023-02-27T19:36:20.896Z,74.04
2023-02-27T19:39:25.499Z,70.14
2023-02-27T19:42:30.005Z,72.69
2023-02-27T19:45:34.508Z,74.72
2023-02-27T19:48:39.507Z,73.96
2023-02-27T19:51:44.058Z,76.79
2023-02-27T19:54:48.627Z,72.56
2023-02-27T19:57:53.102Z,72.83
2023-02-27T20:00:57.820Z,74.33
2023-02-27T20:04:03.375Z,71.53
2023-02-27T20:07:08.090Z,73.72
2023-02-27T20:10:12.774Z,75.65
2023-02-27T20:13:17.394Z,72.54
2023-02-27T20:16:28.034Z,73.63
2023-02-27T20:19:33.002Z,75.85
2023-02-27T20:22:38.115Z,73.11
2023-02-27T20:25:42.668Z,72.12
2023-02-27T20:28:48.827Z,72.77
2023-02-27T20:31:57.257Z,71.55
2023-02-27T20:35:01.796Z,68.64
2023-02-27T20:38:06.763Z,70.53
2023-02-27T20:41:18.291Z,70.32
2023-02-27T20:44:22.801Z,72.01
2023-02-27T20:47:28.058Z,71.45
2023-02-27T20:50:33.882Z,71.79
2023-02-27T20:53:40.596Z,72.10
2023-02-27T20:56:45.346Z,74.98
2023-02-27T20:59:51.398Z,74.29
2023-02-27T21:02:55.977Z,74.71
2023-02-27T21:06:00.531Z,80.39
2023-02-27T21:09:06.299Z,78.50
2023-02-27T21:12:11.679Z,81.29
2023-02-27T21:15:16.203Z,79.60
2023-02-27T21:18:20.758Z,79.62
2023-02-27T21:21:28.795Z,79.92
2023-02-27T21:24:33.806Z,82.54
2023-02-27T21:27:38.438Z,84.46
2023-02-27T21:30:44.434Z,82.62
2023-02-27T21:33:50.228Z,84.91
2023-02-27T21:36:55.697Z,81.71
2023-02-27T21:40:01.748Z,85.29
2023-02-27T21:43:06.236Z,84.26
2023-02-27T21:46:12.653Z,82.73
2023-02-27T21:49:24.605Z,81.41
2023-02-27T21:52:31.577Z,84.90
2023-02-27T21:55:36.056Z,82.19
2023-02-27T21:58:40.587Z,84.19
2023-02-27T22:01:47.396Z,84.36
2023-02-27T22:04:52.061Z,83.68
2023-02-27T22:07:56.596Z,83.14
2023-02-27T22:11:01.474Z,82.55
2023-02-27T22:14:06.890Z,82.24
2023-02-27T22:17:11.348Z,79.77
2023-02-27T22:20:15.911Z,80.35
2023-02-27T22:23:20.540Z,79.69
2023-02-27T22:26:28.153Z,78.99
2023-02-27T22:29:32.765Z,78.65
2023-02-27T22:32:40.580Z,81.52
2023-02-27T22:35:45.305Z,80.10
2023-02-27T22:38:50.482Z,81.57
2023-02-27T22:41:56.842Z,82.78
2023-02-27T22:45:01.537Z,82.85
2023-02-27T22:48:06.436Z,85.30
2023-02-27T22:51:14.835Z,84.34
2023-02-27T22:54:21.942Z,85.76
2023-02-27T22:57:26.430Z,88.65
2023-02-27T23:00:31.028Z,91.72
2023-02-27T23:03:36.582Z,89.21
2023-02-27T23:06:41.951Z,87.93
2023-02-27T23:09:49.458Z,89.79
2023-02-27T23:12:53.911Z,87.33
2023-02-27T23:15:59.621Z,85.59
2023-02-27T23:19:04.798Z,86.77
2023-02-27T23:22:09.298Z,86.01
2023-02-27T23:25:13.915Z,88.49
2023-02-27T23:28:21.376Z,86.81
2023-02-27T23:31:26.108Z,84.49
2023-02-27T23:34:43.765Z,86.40
2023-02-27T23:37:55.630Z,86.58
2023-02-27T23:41:06.600Z,87.64
2023-02-27T23:44:29.393Z,85.14
2023-02-27T23:47:41.441Z,85.47
2023-02-27T23:50:45.950Z,90.47
2023-02-27T23:53:50.955Z,92.48
2023-02-27T23:56:55.556Z,95.79
